sensor_id;sensor_type;location;lat;lon;timestamp;pressure;altitude;pressure_sealevel;temperature;humidity
74169;BME280;62523;53.336;83.690;2022-12-18T00:00:45;100486.97;;;-17.99;88.35
74169;BME280;62523;53.336;83.690;2022-12-18T00:05:48;100490.06;;;-17.79;87.74
74169;BME280;62523;53.336;83.690;2022-12-18T00:10:49;100494.38;;;-17.66;87.65
74169;BME280;62523;53.336;83.690;2022-12-18T00:15:50;100467.66;;;-17.76;87.92
74169;BME280;62523;53.336;83.690;2022-12-18T00:20:51;100496.38;;;-17.62;88.01
74169;BME280;62523;53.336;83.690;2022-12-18T00:25:52;100504.59;;;-17.53;87.72
74169;BME280;62523;53.336;83.690;2022-12-18T00:31:01;100479.56;;;-17.85;87.86
74169;BME280;62523;53.336;83.690;2022-12-18T00:36:09;100516.50;;;-17.62;88.09
74169;BME280;62523;53.336;83.690;2022-12-18T00:41:13;100509.97;;;-17.94;87.70
74169;BME280;62523;53.336;83.690;2022-12-18T00:46:14;100522.78;;;-18.13;88.18
74169;BME280;62523;53.336;83.690;2022-12-18T00:51:15;100539.13;;;-18.08;88.96
74169;BME280;62523;53.336;83.690;2022-12-18T00:56:16;100538.59;;;-18.26;89.05
74169;BME280;62523;53.336;83.690;2022-12-18T01:01:18;100551.75;;;-18.18;89.68
74169;BME280;62523;53.336;83.690;2022-12-18T01:06:19;100557.47;;;-18.09;89.78
74169;BME280;62523;53.336;83.690;2022-12-18T01:11:22;100547.06;;;-18.13;89.50
74169;BME280;62523;53.336;83.690;2022-12-18T01:16:23;100565.09;;;-17.97;88.99
74169;BME280;62523;53.336;83.690;2022-12-18T01:21:24;100564.28;;;-17.86;89.58
74169;BME280;62523;53.336;83.690;2022-12-18T01:26:26;100574.06;;;-17.67;89.31
74169;BME280;62523;53.336;83.690;2022-12-18T01:31:32;100570.69;;;-17.67;89.64
74169;BME280;62523;53.336;83.690;2022-12-18T01:36:36;100570.44;;;-17.70;89.13
74169;BME280;62523;53.336;83.690;2022-12-18T01:41:38;100575.72;;;-17.67;89.28
74169;BME280;62523;53.336;83.690;2022-12-18T01:46:57;100566.78;;;-17.52;88.98
74169;BME280;62523;53.336;83.690;2022-12-18T01:51:58;100579.34;;;-17.30;89.20
74169;BME280;62523;53.336;83.690;2022-12-18T01:57:00;100575.16;;;-17.41;89.07
74169;BME280;62523;53.336;83.690;2022-12-18T02:02:02;100608.28;;;-17.47;89.24
74169;BME280;62523;53.336;83.690;2022-12-18T02:07:09;100605.03;;;-17.46;89.49
74169;BME280;62523;53.336;83.690;2022-12-18T02:12:21;100597.47;;;-17.46;89.17
74169;BME280;62523;53.336;83.690;2022-12-18T02:27:40;100585.66;;;-17.69;90.02
74169;BME280;62523;53.336;83.690;2022-12-18T02:32:46;100605.44;;;-17.51;89.89
74169;BME280;62523;53.336;83.690;2022-12-18T02:37:53;100600.53;;;-17.50;90.25
74169;BME280;62523;53.336;83.690;2022-12-18T02:42:55;100619.03;;;-17.49;89.74
74169;BME280;62523;53.336;83.690;2022-12-18T02:47:56;100621.84;;;-17.57;89.77
74169;BME280;62523;53.336;83.690;2022-12-18T03:03:56;100664.00;;;-17.76;90.35
74169;BME280;62523;53.336;83.690;2022-12-18T03:09:06;100663.94;;;-17.88;90.23
74169;BME280;62523;53.336;83.690;2022-12-18T03:14:10;100689.13;;;-17.98;90.67
74169;BME280;62523;53.336;83.690;2022-12-18T03:19:21;100685.63;;;-18.00;91.07
74169;BME280;62523;53.336;83.690;2022-12-18T03:24:24;100702.72;;;-17.96;90.72
74169;BME280;62523;53.336;83.690;2022-12-18T03:29:38;100697.47;;;-17.99;90.92
74169;BME280;62523;53.336;83.690;2022-12-18T03:34:41;100724.03;;;-18.13;90.72
74169;BME280;62523;53.336;83.690;2022-12-18T03:39:43;100720.13;;;-18.09;90.07
74169;BME280;62523;53.336;83.690;2022-12-18T03:44:55;100745.78;;;-18.03;90.39
74169;BME280;62523;53.336;83.690;2022-12-18T03:50:22;100745.66;;;-18.05;90.26
74169;BME280;62523;53.336;83.690;2022-12-18T03:55:29;100735.75;;;-18.24;89.76
74169;BME280;62523;53.336;83.690;2022-12-18T04:00:34;100752.38;;;-18.26;89.67
74169;BME280;62523;53.336;83.690;2022-12-18T04:05:36;100768.19;;;-18.17;89.80
74169;BME280;62523;53.336;83.690;2022-12-18T04:10:38;100781.72;;;-17.94;89.65
74169;BME280;62523;53.336;83.690;2022-12-18T04:15:39;100790.66;;;-17.87;89.07
74169;BME280;62523;53.336;83.690;2022-12-18T04:20:41;100773.53;;;-17.91;88.07
74169;BME280;62523;53.336;83.690;2022-12-18T04:25:42;100798.97;;;-17.88;87.96
74169;BME280;62523;53.336;83.690;2022-12-18T04:30:43;100765.06;;;-18.34;87.86
74169;BME280;62523;53.336;83.690;2022-12-18T04:35:44;100819.25;;;-18.18;88.65
74169;BME280;62523;53.336;83.690;2022-12-18T04:40:45;100828.44;;;-18.18;87.96
74169;BME280;62523;53.336;83.690;2022-12-18T04:45:47;100852.84;;;-18.07;87.58
74169;BME280;62523;53.336;83.690;2022-12-18T04:50:48;100855.25;;;-18.08;86.79
74169;BME280;62523;53.336;83.690;2022-12-18T04:55:49;100837.91;;;-18.26;86.31
74169;BME280;62523;53.336;83.690;2022-12-18T05:00:50;100845.19;;;-18.19;86.10
74169;BME280;62523;53.336;83.690;2022-12-18T05:05:52;100848.84;;;-18.15;85.74
74169;BME280;62523;53.336;83.690;2022-12-18T05:11:06;100852.31;;;-18.13;85.25
74169;BME280;62523;53.336;83.690;2022-12-18T05:16:07;100855.22;;;-18.39;85.44
74169;BME280;62523;53.336;83.690;2022-12-18T05:21:09;100863.28;;;-18.23;85.49
74169;BME280;62523;53.336;83.690;2022-12-18T05:26:15;100883.53;;;-18.21;85.55
74169;BME280;62523;53.336;83.690;2022-12-18T05:31:16;100900.25;;;-18.11;84.94
74169;BME280;62523;53.336;83.690;2022-12-18T05:36:17;100908.56;;;-18.23;84.70
74169;BME280;62523;53.336;83.690;2022-12-18T05:41:18;100896.44;;;-18.58;84.92
74169;BME280;62523;53.336;83.690;2022-12-18T05:46:19;100890.41;;;-18.60;84.61
74169;BME280;62523;53.336;83.690;2022-12-18T05:51:21;100915.47;;;-18.30;83.72
74169;BME280;62523;53.336;83.690;2022-12-18T05:56:23;100921.94;;;-18.63;84.05
74169;BME280;62523;53.336;83.690;2022-12-18T06:01:26;100935.50;;;-18.61;83.83
74169;BME280;62523;53.336;83.690;2022-12-18T06:06:27;100944.44;;;-18.54;83.55
74169;BME280;62523;53.336;83.690;2022-12-18T06:11:29;100940.06;;;-18.57;83.13
74169;BME280;62523;53.336;83.690;2022-12-18T06:16:31;100955.09;;;-18.67;82.66
74169;BME280;62523;53.336;83.690;2022-12-18T06:21:32;100959.72;;;-18.43;82.83
74169;BME280;62523;53.336;83.690;2022-12-18T06:26:37;100970.47;;;-18.54;82.29
74169;BME280;62523;53.336;83.690;2022-12-18T06:31:38;100934.22;;;-18.76;82.34
74169;BME280;62523;53.336;83.690;2022-12-18T06:36:40;100973.41;;;-18.49;82.22
74169;BME280;62523;53.336;83.690;2022-12-18T06:41:41;100981.53;;;-18.52;82.15
74169;BME280;62523;53.336;83.690;2022-12-18T06:46:42;100984.38;;;-18.68;81.83
74169;BME280;62523;53.336;83.690;2022-12-18T06:51:43;100994.56;;;-18.66;81.46
74169;BME280;62523;53.336;83.690;2022-12-18T06:56:45;101000.13;;;-18.60;80.93
74169;BME280;62523;53.336;83.690;2022-12-18T07:01:46;101000.22;;;-18.79;80.46
74169;BME280;62523;53.336;83.690;2022-12-18T07:06:48;101022.44;;;-18.73;80.42
74169;BME280;62523;53.336;83.690;2022-12-18T07:11:49;101031.91;;;-18.61;80.15
74169;BME280;62523;53.336;83.690;2022-12-18T07:16:50;101029.38;;;-18.71;80.10
74169;BME280;62523;53.336;83.690;2022-12-18T07:21:51;101054.13;;;-18.65;79.61
74169;BME280;62523;53.336;83.690;2022-12-18T07:26:53;101051.22;;;-18.70;79.40
74169;BME280;62523;53.336;83.690;2022-12-18T07:31:54;101057.75;;;-18.72;79.16
74169;BME280;62523;53.336;83.690;2022-12-18T07:36:55;101082.88;;;-18.72;78.89
74169;BME280;62523;53.336;83.690;2022-12-18T07:41:56;101082.97;;;-18.62;79.13
74169;BME280;62523;53.336;83.690;2022-12-18T07:47:16;101101.66;;;-18.68;78.37
74169;BME280;62523;53.336;83.690;2022-12-18T07:52:18;101103.63;;;-18.74;79.36
74169;BME280;62523;53.336;83.690;2022-12-18T07:57:19;101105.50;;;-18.72;78.21
74169;BME280;62523;53.336;83.690;2022-12-18T08:02:20;101114.91;;;-18.80;78.76
74169;BME280;62523;53.336;83.690;2022-12-18T08:07:21;101106.00;;;-18.95;78.73
74169;BME280;62523;53.336;83.690;2022-12-18T08:12:23;101129.66;;;-19.21;78.55
74169;BME280;62523;53.336;83.690;2022-12-18T08:17:24;101126.28;;;-19.21;79.16
74169;BME280;62523;53.336;83.690;2022-12-18T08:22:25;101151.34;;;-19.12;79.66
74169;BME280;62523;53.336;83.690;2022-12-18T08:27:26;101159.97;;;-19.19;79.15
74169;BME280;62523;53.336;83.690;2022-12-18T08:32:28;101155.44;;;-19.32;79.44
74169;BME280;62523;53.336;83.690;2022-12-18T08:37:29;101167.88;;;-19.42;79.24
74169;BME280;62523;53.336;83.690;2022-12-18T08:42:39;101187.25;;;-19.41;78.97
74169;BME280;62523;53.336;83.690;2022-12-18T08:47:59;101191.16;;;-19.62;78.77
74169;BME280;62523;53.336;83.690;2022-12-18T08:53:01;101201.03;;;-19.64;79.61
74169;BME280;62523;53.336;83.690;2022-12-18T08:58:02;101211.47;;;-19.78;79.14
74169;BME280;62523;53.336;83.690;2022-12-18T09:03:03;101221.97;;;-19.91;79.43
74169;BME280;62523;53.336;83.690;2022-12-18T09:08:04;101219.91;;;-19.95;80.21
74169;BME280;62523;53.336;83.690;2022-12-18T09:13:05;101241.72;;;-19.85;79.54
74169;BME280;62523;53.336;83.690;2022-12-18T09:18:06;101256.69;;;-20.13;79.64
74169;BME280;62523;53.336;83.690;2022-12-18T09:23:08;101271.72;;;-20.04;79.68
74169;BME280;62523;53.336;83.690;2022-12-18T09:28:17;101287.34;;;-20.15;79.69
74169;BME280;62523;53.336;83.690;2022-12-18T09:33:19;101301.06;;;-20.20;80.10
74169;BME280;62523;53.336;83.690;2022-12-18T09:38:20;101278.16;;;-20.41;80.11
74169;BME280;62523;53.336;83.690;2022-12-18T09:43:37;101296.91;;;-20.29;80.88
74169;BME280;62523;53.336;83.690;2022-12-18T09:48:46;101322.13;;;-20.36;81.13
74169;BME280;62523;53.336;83.690;2022-12-18T09:53:56;101326.38;;;-20.44;81.44
74169;BME280;62523;53.336;83.690;2022-12-18T09:59:01;101314.72;;;-20.60;81.84
74169;BME280;62523;53.336;83.690;2022-12-18T10:04:02;101318.66;;;-20.80;82.74
74169;BME280;62523;53.336;83.690;2022-12-18T10:19:25;101339.50;;;-21.30;83.46
74169;BME280;62523;53.336;83.690;2022-12-18T10:29:49;101369.13;;;-21.51;83.87
74169;BME280;62523;53.336;83.690;2022-12-18T10:34:52;101371.72;;;-21.58;83.67
74169;BME280;62523;53.336;83.690;2022-12-18T10:40:12;101383.34;;;-21.58;83.92
74169;BME280;62523;53.336;83.690;2022-12-18T10:45:16;101400.22;;;-21.64;83.32
74169;BME280;62523;53.336;83.690;2022-12-18T10:55:33;101402.25;;;-21.69;83.52
74169;BME280;62523;53.336;83.690;2022-12-18T11:00:35;101424.59;;;-21.71;83.02
74169;BME280;62523;53.336;83.690;2022-12-18T11:05:36;101428.97;;;-21.77;83.32
74169;BME280;62523;53.336;83.690;2022-12-18T11:10:38;101430.81;;;-21.67;83.63
74169;BME280;62523;53.336;83.690;2022-12-18T11:15:41;101444.38;;;-21.65;83.51
74169;BME280;62523;53.336;83.690;2022-12-18T11:20:50;101427.25;;;-21.85;82.64
74169;BME280;62523;53.336;83.690;2022-12-18T11:26:00;101443.47;;;-21.81;83.54
74169;BME280;62523;53.336;83.690;2022-12-18T11:31:22;101435.75;;;-21.76;83.82
74169;BME280;62523;53.336;83.690;2022-12-18T11:36:26;101439.78;;;-21.69;83.60
74169;BME280;62523;53.336;83.690;2022-12-18T11:41:34;101453.56;;;-21.73;83.32
74169;BME280;62523;53.336;83.690;2022-12-18T11:52:36;101479.06;;;-22.00;82.94
74169;BME280;62523;53.336;83.690;2022-12-18T12:03:30;101497.28;;;-21.85;82.98
74169;BME280;62523;53.336;83.690;2022-12-18T12:19:46;101510.50;;;-22.02;82.86
74169;BME280;62523;53.336;83.690;2022-12-18T12:25:19;101519.38;;;-21.97;82.62
74169;BME280;62523;53.336;83.690;2022-12-18T12:30:20;101512.84;;;-22.03;82.69
74169;BME280;62523;53.336;83.690;2022-12-18T12:40:37;101494.00;;;-22.16;83.23
74169;BME280;62523;53.336;83.690;2022-12-18T12:50:53;101498.94;;;-22.24;82.88
74169;BME280;62523;53.336;83.690;2022-12-18T12:55:56;101528.72;;;-22.03;82.79
74169;BME280;62523;53.336;83.690;2022-12-18T13:01:18;101534.25;;;-22.21;82.82
74169;BME280;62523;53.336;83.690;2022-12-18T13:06:41;101534.75;;;-22.17;82.55
74169;BME280;62523;53.336;83.690;2022-12-18T13:11:45;101530.63;;;-22.32;82.89
74169;BME280;62523;53.336;83.690;2022-12-18T13:22:22;101562.31;;;-22.24;82.89
74169;BME280;62523;53.336;83.690;2022-12-18T13:38:36;101561.50;;;-22.32;83.63
74169;BME280;62523;53.336;83.690;2022-12-18T13:49:35;101565.44;;;-22.41;84.27
74169;BME280;62523;53.336;83.690;2022-12-18T13:59:38;101570.59;;;-22.32;85.42
74169;BME280;62523;53.336;83.690;2022-12-18T14:04:39;101562.03;;;-22.34;86.03
74169;BME280;62523;53.336;83.690;2022-12-18T14:09:46;101591.41;;;-22.24;86.70
74169;BME280;62523;53.336;83.690;2022-12-18T14:14:51;101581.59;;;-22.23;87.53
74169;BME280;62523;53.336;83.690;2022-12-18T14:19:52;101579.56;;;-22.18;88.23
74169;BME280;62523;53.336;83.690;2022-12-18T14:30:31;101591.41;;;-22.01;89.95
74169;BME280;62523;53.336;83.690;2022-12-18T14:35:35;101592.84;;;-22.03;89.95
74169;BME280;62523;53.336;83.690;2022-12-18T14:40:36;101606.81;;;-21.90;89.75
74169;BME280;62523;53.336;83.690;2022-12-18T14:45:40;101607.56;;;-21.91;90.03
74169;BME280;62523;53.336;83.690;2022-12-18T14:50:42;101597.47;;;-21.99;89.31
74169;BME280;62523;53.336;83.690;2022-12-18T14:55:46;101627.28;;;-21.78;89.52
74169;BME280;62523;53.336;83.690;2022-12-18T15:00:48;101621.34;;;-21.94;89.28
74169;BME280;62523;53.336;83.690;2022-12-18T15:05:49;101617.38;;;-21.92;89.06
74169;BME280;62523;53.336;83.690;2022-12-18T15:10:51;101617.56;;;-21.91;90.03
74169;BME280;62523;53.336;83.690;2022-12-18T15:15:54;101626.69;;;-21.91;89.34
74169;BME280;62523;53.336;83.690;2022-12-18T15:20:58;101627.50;;;-22.06;90.01
74169;BME280;62523;53.336;83.690;2022-12-18T15:26:06;101649.56;;;-21.95;89.98
74169;BME280;62523;53.336;83.690;2022-12-18T15:36:16;101607.63;;;-21.98;89.64
74169;BME280;62523;53.336;83.690;2022-12-18T15:41:20;101630.63;;;-21.93;89.61
74169;BME280;62523;53.336;83.690;2022-12-18T15:46:23;101632.09;;;-22.02;90.36
74169;BME280;62523;53.336;83.690;2022-12-18T15:51:38;101633.06;;;-21.86;90.89
74169;BME280;62523;53.336;83.690;2022-12-18T15:56:39;101615.84;;;-21.99;90.76
74169;BME280;62523;53.336;83.690;2022-12-18T16:01:59;101620.44;;;-21.95;91.17
74169;BME280;62523;53.336;83.690;2022-12-18T16:07:00;101612.31;;;-21.85;91.52
74169;BME280;62523;53.336;83.690;2022-12-18T16:12:02;101608.06;;;-21.86;91.85
74169;BME280;62523;53.336;83.690;2022-12-18T16:17:08;101606.22;;;-21.80;91.78
74169;BME280;62523;53.336;83.690;2022-12-18T16:22:36;101621.78;;;-21.82;91.94
74169;BME280;62523;53.336;83.690;2022-12-18T16:27:38;101612.09;;;-21.79;92.73
74169;BME280;62523;53.336;83.690;2022-12-18T16:32:39;101597.84;;;-21.80;93.07
74169;BME280;62523;53.336;83.690;2022-12-18T16:37:41;101611.81;;;-21.66;93.80
74169;BME280;62523;53.336;83.690;2022-12-18T16:42:44;101612.13;;;-21.63;94.35
74169;BME280;62523;53.336;83.690;2022-12-18T16:47:45;101608.44;;;-21.67;94.63
74169;BME280;62523;53.336;83.690;2022-12-18T16:52:47;101634.88;;;-21.46;94.93
74169;BME280;62523;53.336;83.690;2022-12-18T16:57:48;101625.41;;;-21.49;94.67
74169;BME280;62523;53.336;83.690;2022-12-18T17:02:49;101604.03;;;-21.54;94.86
74169;BME280;62523;53.336;83.690;2022-12-18T17:07:51;101631.38;;;-21.39;94.79
74169;BME280;62523;53.336;83.690;2022-12-18T17:12:52;101624.53;;;-21.49;95.05
74169;BME280;62523;53.336;83.690;2022-12-18T17:17:53;101655.47;;;-21.33;94.32
74169;BME280;62523;53.336;83.690;2022-12-18T17:22:58;101637.53;;;-21.29;93.68
74169;BME280;62523;53.336;83.690;2022-12-18T17:27:59;101632.59;;;-21.36;93.48
74169;BME280;62523;53.336;83.690;2022-12-18T17:33:00;101640.97;;;-21.67;92.73
74169;BME280;62523;53.336;83.690;2022-12-18T17:38:02;101650.19;;;-21.82;91.32
74169;BME280;62523;53.336;83.690;2022-12-18T17:43:03;101645.00;;;-21.83;90.64
74169;BME280;62523;53.336;83.690;2022-12-18T17:48:05;101644.72;;;-21.94;90.48
74169;BME280;62523;53.336;83.690;2022-12-18T17:53:07;101652.88;;;-21.80;90.40
74169;BME280;62523;53.336;83.690;2022-12-18T17:58:08;101624.50;;;-21.88;90.28
74169;BME280;62523;53.336;83.690;2022-12-18T18:03:09;101630.94;;;-21.90;90.46
74169;BME280;62523;53.336;83.690;2022-12-18T18:08:11;101646.41;;;-21.78;90.00
74169;BME280;62523;53.336;83.690;2022-12-18T18:13:19;101657.47;;;-21.76;90.13
74169;BME280;62523;53.336;83.690;2022-12-18T18:18:40;101661.25;;;-21.80;89.84
74169;BME280;62523;53.336;83.690;2022-12-18T18:23:41;101662.50;;;-21.83;89.87
74169;BME280;62523;53.336;83.690;2022-12-18T18:28:42;101649.97;;;-21.76;89.40
74169;BME280;62523;53.336;83.690;2022-12-18T18:33:43;101657.97;;;-21.72;88.90
74169;BME280;62523;53.336;83.690;2022-12-18T18:38:44;101673.25;;;-21.84;89.57
74169;BME280;62523;53.336;83.690;2022-12-18T18:43:46;101653.63;;;-21.88;89.18
74169;BME280;62523;53.336;83.690;2022-12-18T18:48:48;101659.41;;;-21.74;89.52
74169;BME280;62523;53.336;83.690;2022-12-18T18:53:50;101665.00;;;-21.76;89.59
74169;BME280;62523;53.336;83.690;2022-12-18T18:58:55;101666.53;;;-21.70;89.31
74169;BME280;62523;53.336;83.690;2022-12-18T19:03:56;101657.72;;;-21.66;89.27
74169;BME280;62523;53.336;83.690;2022-12-18T19:08:57;101614.09;;;-22.07;89.13
74169;BME280;62523;53.336;83.690;2022-12-18T19:13:59;101656.06;;;-21.81;88.99
74169;BME280;62523;53.336;83.690;2022-12-18T19:19:01;101674.81;;;-21.78;89.37
74169;BME280;62523;53.336;83.690;2022-12-18T19:24:03;101679.81;;;-21.78;89.77
74169;BME280;62523;53.336;83.690;2022-12-18T19:29:05;101675.31;;;-21.73;89.56
74169;BME280;62523;53.336;83.690;2022-12-18T19:34:07;101677.34;;;-21.62;89.51
74169;BME280;62523;53.336;83.690;2022-12-18T19:39:14;101665.91;;;-21.60;89.12
74169;BME280;62523;53.336;83.690;2022-12-18T19:44:16;101654.44;;;-21.58;88.63
74169;BME280;62523;53.336;83.690;2022-12-18T19:49:20;101628.94;;;-21.85;89.13
74169;BME280;62523;53.336;83.690;2022-12-18T19:54:21;101643.34;;;-21.76;89.71
74169;BME280;62523;53.336;83.690;2022-12-18T19:59:22;101657.13;;;-21.79;89.44
74169;BME280;62523;53.336;83.690;2022-12-18T20:04:24;101661.19;;;-21.73;89.98
74169;BME280;62523;53.336;83.690;2022-12-18T20:09:25;101650.38;;;-21.80;89.63
74169;BME280;62523;53.336;83.690;2022-12-18T20:14:26;101662.13;;;-21.79;89.92
74169;BME280;62523;53.336;83.690;2022-12-18T20:19:27;101667.63;;;-21.75;89.73
74169;BME280;62523;53.336;83.690;2022-12-18T20:24:28;101654.13;;;-21.84;89.25
74169;BME280;62523;53.336;83.690;2022-12-18T20:29:29;101638.84;;;-21.94;89.13
74169;BME280;62523;53.336;83.690;2022-12-18T20:34:30;101649.19;;;-21.91;89.88
74169;BME280;62523;53.336;83.690;2022-12-18T20:39:31;101655.84;;;-21.99;89.62
74169;BME280;62523;53.336;83.690;2022-12-18T20:44:33;101661.59;;;-22.07;90.52
74169;BME280;62523;53.336;83.690;2022-12-18T20:49:34;101671.06;;;-22.04;90.73
74169;BME280;62523;53.336;83.690;2022-12-18T20:54:35;101644.66;;;-22.10;90.55
74169;BME280;62523;53.336;83.690;2022-12-18T20:59:36;101657.34;;;-22.08;90.32
74169;BME280;62523;53.336;83.690;2022-12-18T21:04:37;101650.34;;;-22.03;90.96
74169;BME280;62523;53.336;83.690;2022-12-18T21:09:38;101649.47;;;-22.04;90.39
74169;BME280;62523;53.336;83.690;2022-12-18T21:14:40;101656.91;;;-21.97;91.03
74169;BME280;62523;53.336;83.690;2022-12-18T21:19:41;101662.09;;;-21.95;91.06
74169;BME280;62523;53.336;83.690;2022-12-18T21:24:42;101665.78;;;-21.92;90.53
74169;BME280;62523;53.336;83.690;2022-12-18T21:29:44;101640.47;;;-21.95;90.74
74169;BME280;62523;53.336;83.690;2022-12-18T21:34:45;101653.84;;;-21.94;91.12
74169;BME280;62523;53.336;83.690;2022-12-18T21:39:46;101638.25;;;-21.84;91.09
74169;BME280;62523;53.336;83.690;2022-12-18T21:44:47;101639.84;;;-21.85;91.04
74169;BME280;62523;53.336;83.690;2022-12-18T21:49:52;101634.78;;;-21.78;90.92
74169;BME280;62523;53.336;83.690;2022-12-18T21:54:54;101631.16;;;-21.73;91.27
74169;BME280;62523;53.336;83.690;2022-12-18T21:59:55;101620.09;;;-21.75;91.17
74169;BME280;62523;53.336;83.690;2022-12-18T22:04:56;101628.50;;;-21.74;91.21
74169;BME280;62523;53.336;83.690;2022-12-18T22:09:57;101624.97;;;-21.76;91.79
74169;BME280;62523;53.336;83.690;2022-12-18T22:14:58;101643.09;;;-21.70;91.51
74169;BME280;62523;53.336;83.690;2022-12-18T22:19:59;101643.38;;;-21.60;91.98
74169;BME280;62523;53.336;83.690;2022-12-18T22:25:01;101644.13;;;-21.61;92.40
74169;BME280;62523;53.336;83.690;2022-12-18T22:30:03;101626.06;;;-21.58;92.07
74169;BME280;62523;53.336;83.690;2022-12-18T22:35:05;101626.22;;;-21.57;91.93
74169;BME280;62523;53.336;83.690;2022-12-18T22:40:06;101614.25;;;-21.59;92.35
74169;BME280;62523;53.336;83.690;2022-12-18T22:45:08;101616.66;;;-21.68;92.22
74169;BME280;62523;53.336;83.690;2022-12-18T22:50:11;101622.16;;;-21.63;92.23
74169;BME280;62523;53.336;83.690;2022-12-18T22:55:13;101609.22;;;-21.75;92.42
74169;BME280;62523;53.336;83.690;2022-12-18T23:00:15;101617.81;;;-21.57;92.34
74169;BME280;62523;53.336;83.690;2022-12-18T23:05:17;101630.31;;;-21.57;92.46
74169;BME280;62523;53.336;83.690;2022-12-18T23:10:18;101627.03;;;-21.49;91.99
74169;BME280;62523;53.336;83.690;2022-12-18T23:15:19;101605.72;;;-21.45;92.63
74169;BME280;62523;53.336;83.690;2022-12-18T23:20:21;101627.53;;;-21.29;92.55
74169;BME280;62523;53.336;83.690;2022-12-18T23:25:22;101618.97;;;-21.15;93.43
74169;BME280;62523;53.336;83.690;2022-12-18T23:30:24;101618.78;;;-21.16;93.37
74169;BME280;62523;53.336;83.690;2022-12-18T23:35:25;101627.13;;;-21.24;93.70
74169;BME280;62523;53.336;83.690;2022-12-18T23:40:27;101639.88;;;-21.14;94.06
74169;BME280;62523;53.336;83.690;2022-12-18T23:45:29;101621.13;;;-21.34;93.90
74169;BME280;62523;53.336;83.690;2022-12-18T23:50:30;101631.25;;;-21.09;93.89
74169;BME280;62523;53.336;83.690;2022-12-18T23:55:41;101615.16;;;-20.95;94.35
